Aviation Digital Data Service (ADDS)

Output produced by METARs form (2205 UTC 01 December 2021)
found at http://www.aviationweather.gov/metar/data/
 
TAF LOAN 011125Z 0112/0121 VRB03KT 9999 SCT050